Maersk Barry — OYJE2 — position and weather

sailwx.info

Track history (hours):
 
Tides and Currents Weather Stations Pressure Air Temp Water Temp Dewpoint Dewpoint Depression Visibility Wind Speed Wind Dir Waves Ship Positions

Maersk Barry

Last reported at 2016-Aug-18 11:07 UTC. Time now 2016-Aug-30 18:48 UTC.
Position S 29°21' E 032°14'.
Warning: this ship's position is 12 days out of date.

Length 175 m; draft 6.2 m.

Type: Ship. MMSI: 219127000.

Date/timePositionNaut miles runAvg speedWind from/ knotsBaromVisibWave heightAir tempDewpointWater temp
2016-Aug-18 11:07S 29°21' E 032°14'711.8
2016-Aug-18 10:34S 29°25' E 032°09'1311.8
2016-Aug-18 09:27S 29°33' E 031°56'1111.9
2016-Aug-18 08:34S 29°39' E 031°46'1413.6
2016-Aug-18 07:34S 29°45' E 031°33'1414.1
2016-Aug-18 06:33S 29°49' E 031°17'1212.0
2016-Aug-18 05:34S 29°52' E 031°03'1 1.2
2016-Aug-18 04:32S 29°53' E 031°03'0 0.0
2016-Aug-18 03:31S 29°53' E 031°03'0 0.0
2016-Aug-18 02:31S 29°53' E 031°03'0 0.0
2016-Aug-18 01:31S 29°53' E 031°03'0 0.0
2016-Aug-18 00:31S 29°53' E 031°03'0 0.0
2016-Aug-17 23:31S 29°53' E 031°03'0 0.0
2016-Aug-17 22:31S 29°53' E 031°03'0 0.0
2016-Aug-17 21:28S 29°53' E 031°03'0 0.0
2016-Aug-17 20:31S 29°53' E 031°03'0 0.0
2016-Aug-17 19:31S 29°53' E 031°03'0 0.0
2016-Aug-17 18:31S 29°53' E 031°03'0 0.0
2016-Aug-17 17:31S 29°53' E 031°03'0 0.0
2016-Aug-17 16:31S 29°53' E 031°03'0 0.0
2016-Aug-17 15:31S 29°53' E 031°03'0 0.0
2016-Aug-17 14:31S 29°53' E 031°03'0 0.0
2016-Aug-17 13:28S 29°53' E 031°03'0 0.0
2016-Aug-17 12:31S 29°53' E 031°03'0 0.0
2016-Aug-17 11:31S 29°53' E 031°03'0 0.0
2016-Aug-17 10:28S 29°53' E 031°03'0 0.0
2016-Aug-17 09:31S 29°53' E 031°03'0 0.0
2016-Aug-17 08:31S 29°53' E 031°03'0 0.0
2016-Aug-17 07:31S 29°53' E 031°03'0 0.0
2016-Aug-17 06:31S 29°53' E 031°03'0 0.0
2016-Aug-17 05:31S 29°53' E 031°03'0 0.0
2016-Aug-17 04:28S 29°53' E 031°03'0 0.0
2016-Aug-17 03:31S 29°53' E 031°03'0 0.0
2016-Aug-17 02:31S 29°53' E 031°03'0 0.0
2016-Aug-17 01:31S 29°53' E 031°03'0 0.0
2016-Aug-17 00:31S 29°53' E 031°03'0 0.0
2016-Aug-16 23:31S 29°53' E 031°03'0 0.0
2016-Aug-16 22:31S 29°53' E 031°03'0 0.0
2016-Aug-16 21:31S 29°53' E 031°03'0 0.0
2016-Aug-16 20:31S 29°53' E 031°03'0 0.0
2016-Aug-16 19:31S 29°53' E 031°03'0 0.0
2016-Aug-16 18:31S 29°53' E 031°03'0 0.0
2016-Aug-16 17:31S 29°53' E 031°03'0 0.0
2016-Aug-16 16:31S 29°53' E 031°03'0 0.0
2016-Aug-16 15:31S 29°53' E 031°03'0 0.0
2016-Aug-16 14:31S 29°53' E 031°03'0 0.0
2016-Aug-16 13:28S 29°53' E 031°03'0 0.0
2016-Aug-16 12:31S 29°53' E 031°03'0 0.0
2016-Aug-16 11:31S 29°53' E 031°03'0 0.0
2016-Aug-16 10:31S 29°53' E 031°03'0 0.0
2016-Aug-16 09:31S 29°53' E 031°03'0 0.0
2016-Aug-16 08:31S 29°53' E 031°03'0 0.0
2016-Aug-16 07:31S 29°53' E 031°03'0 0.0
2016-Aug-16 04:28S 29°53' E 031°03'0 0.0
2016-Aug-16 03:31S 29°53' E 031°03'0 0.0
2016-Aug-16 02:31S 29°53' E 031°03'0 0.0
2016-Aug-16 01:31S 29°53' E 031°03'0 0.0
2016-Aug-16 00:31S 29°53' E 031°03'0 0.0
2016-Aug-15 23:31S 29°53' E 031°03'0 0.0
2016-Aug-15 22:31S 29°53' E 031°03'0 0.0
2016-Aug-15 21:33S 29°53' E 031°03'5 5.2
2016-Aug-15 20:33S 29°49' E 031°07'9 9.0
2016-Aug-15 19:33S 29°44' E 031°16'5 5.2
2016-Aug-15 18:33S 29°41' E 031°11'0 0.0
2016-Aug-15 17:33S 29°41' E 031°11'0 0.0
2016-Aug-15 16:33S 29°41' E 031°11'0 0.0
2016-Aug-15 15:33S 29°41' E 031°11'0 0.0
2016-Aug-15 14:33S 29°41' E 031°11'0 0.0
2016-Aug-15 13:33S 29°41' E 031°11'0 0.0
2016-Aug-15 12:33S 29°41' E 031°11'0 0.0
2016-Aug-15 11:33S 29°41' E 031°11'0 0.0
2016-Aug-15 10:33S 29°41' E 031°11'0 0.0
2016-Aug-15 09:33S 29°41' E 031°11'0 0.0
2016-Aug-15 08:33S 29°41' E 031°11'0 0.0
2016-Aug-15 07:33S 29°41' E 031°11'0 0.0
2016-Aug-15 06:33S 29°41' E 031°11'0 0.0
2016-Aug-15 04:33S 29°41' E 031°11'1 1.1
2016-Aug-15 03:33S 29°41' E 031°12'6 5.6
2016-Aug-15 02:33S 29°46' E 031°16'1010.0
2016-Aug-15 01:34S 29°46' E 031°28'1413.9
2016-Aug-15 00:33S 29°43' E 031°43'6014.9
2016-Aug-14 20:32S 29°28' E 032°50'  
Track history (hours):
 
Tides and Currents Weather Stations Pressure Air Temp Water Temp Dewpoint Dewpoint Depression Visibility Wind Speed Wind Dir Waves Ship Positions

Maersk Barry

Last reported at 2016-Aug-18 11:07 UTC. Time now 2016-Aug-30 18:48 UTC.
Position S 29°21' E 032°14'.
Warning: this ship's position is 12 days out of date.

Length 175 m; draft 6.2 m.

Type: Ship. MMSI: 219127000.

Date/timePositionNaut miles runAvg speedWind from/ knotsBaromVisibWave heightAir tempDewpointWater temp
2016-Aug-18 11:07S 29°21' E 032°14'711.8
2016-Aug-18 10:34S 29°25' E 032°09'1311.8
2016-Aug-18 09:27S 29°33' E 031°56'1111.9
2016-Aug-18 08:34S 29°39' E 031°46'1413.6
2016-Aug-18 07:34S 29°45' E 031°33'1414.1
2016-Aug-18 06:33S 29°49' E 031°17'1212.0
2016-Aug-18 05:34S 29°52' E 031°03'1 1.2
2016-Aug-18 04:32S 29°53' E 031°03'0 0.0
2016-Aug-18 03:31S 29°53' E 031°03'0 0.0
2016-Aug-18 02:31S 29°53' E 031°03'0 0.0
2016-Aug-18 01:31S 29°53' E 031°03'0 0.0
2016-Aug-18 00:31S 29°53' E 031°03'0 0.0
2016-Aug-17 23:31S 29°53' E 031°03'0 0.0
2016-Aug-17 22:31S 29°53' E 031°03'0 0.0
2016-Aug-17 21:28S 29°53' E 031°03'0 0.0
2016-Aug-17 20:31S 29°53' E 031°03'0 0.0
2016-Aug-17 19:31S 29°53' E 031°03'0 0.0
2016-Aug-17 18:31S 29°53' E 031°03'0 0.0
2016-Aug-17 17:31S 29°53' E 031°03'0 0.0
2016-Aug-17 16:31S 29°53' E 031°03'0 0.0
2016-Aug-17 15:31S 29°53' E 031°03'0 0.0
2016-Aug-17 14:31S 29°53' E 031°03'0 0.0
2016-Aug-17 13:28S 29°53' E 031°03'0 0.0
2016-Aug-17 12:31S 29°53' E 031°03'0 0.0
2016-Aug-17 11:31S 29°53' E 031°03'0 0.0
2016-Aug-17 10:28S 29°53' E 031°03'0 0.0
2016-Aug-17 09:31S 29°53' E 031°03'0 0.0
2016-Aug-17 08:31S 29°53' E 031°03'0 0.0
2016-Aug-17 07:31S 29°53' E 031°03'0 0.0
2016-Aug-17 06:31S 29°53' E 031°03'0 0.0
2016-Aug-17 05:31S 29°53' E 031°03'0 0.0
2016-Aug-17 04:28S 29°53' E 031°03'0 0.0
2016-Aug-17 03:31S 29°53' E 031°03'0 0.0
2016-Aug-17 02:31S 29°53' E 031°03'0 0.0
2016-Aug-17 01:31S 29°53' E 031°03'0 0.0
2016-Aug-17 00:31S 29°53' E 031°03'0 0.0
2016-Aug-16 23:31S 29°53' E 031°03'0 0.0
2016-Aug-16 22:31S 29°53' E 031°03'0 0.0
2016-Aug-16 21:31S 29°53' E 031°03'0 0.0
2016-Aug-16 20:31S 29°53' E 031°03'0 0.0
2016-Aug-16 19:31S 29°53' E 031°03'0 0.0
2016-Aug-16 18:31S 29°53' E 031°03'0 0.0
2016-Aug-16 17:31S 29°53' E 031°03'0 0.0
2016-Aug-16 16:31S 29°53' E 031°03'0 0.0
2016-Aug-16 15:31S 29°53' E 031°03'0 0.0
2016-Aug-16 14:31S 29°53' E 031°03'0 0.0
2016-Aug-16 13:28S 29°53' E 031°03'0 0.0
2016-Aug-16 12:31S 29°53' E 031°03'0 0.0
2016-Aug-16 11:31S 29°53' E 031°03'0 0.0
2016-Aug-16 10:31S 29°53' E 031°03'0 0.0
2016-Aug-16 09:31S 29°53' E 031°03'0 0.0
2016-Aug-16 08:31S 29°53' E 031°03'0 0.0
2016-Aug-16 07:31S 29°53' E 031°03'0 0.0
2016-Aug-16 04:28S 29°53' E 031°03'0 0.0
2016-Aug-16 03:31S 29°53' E 031°03'0 0.0
2016-Aug-16 02:31S 29°53' E 031°03'0 0.0
2016-Aug-16 01:31S 29°53' E 031°03'0 0.0
2016-Aug-16 00:31S 29°53' E 031°03'0 0.0
2016-Aug-15 23:31S 29°53' E 031°03'0 0.0
2016-Aug-15 22:31S 29°53' E 031°03'0 0.0
2016-Aug-15 21:33S 29°53' E 031°03'5 5.2
2016-Aug-15 20:33S 29°49' E 031°07'9 9.0
2016-Aug-15 19:33S 29°44' E 031°16'5 5.2
2016-Aug-15 18:33S 29°41' E 031°11'0 0.0
2016-Aug-15 17:33S 29°41' E 031°11'0 0.0
2016-Aug-15 16:33S 29°41' E 031°11'0 0.0
2016-Aug-15 15:33S 29°41' E 031°11'0 0.0
2016-Aug-15 14:33S 29°41' E 031°11'0 0.0
2016-Aug-15 13:33S 29°41' E 031°11'0 0.0
2016-Aug-15 12:33S 29°41' E 031°11'0 0.0
2016-Aug-15 11:33S 29°41' E 031°11'0 0.0
2016-Aug-15 10:33S 29°41' E 031°11'0 0.0
2016-Aug-15 09:33S 29°41' E 031°11'0 0.0
2016-Aug-15 08:33S 29°41' E 031°11'0 0.0
2016-Aug-15 07:33S 29°41' E 031°11'0 0.0
2016-Aug-15 06:33S 29°41' E 031°11'0 0.0
2016-Aug-15 04:33S 29°41' E 031°11'1 1.1
2016-Aug-15 03:33S 29°41' E 031°12'6 5.6
2016-Aug-15 02:33S 29°46' E 031°16'1010.0
2016-Aug-15 01:34S 29°46' E 031°28'1413.9
2016-Aug-15 00:33S 29°43' E 031°43'6014.9
2016-Aug-14 20:32S 29°28' E 032°50'  

Dump ship's entire track history